createdAt,value
2017-11-28T00:00:47.403Z,1.60
2017-11-28T00:03:15.711Z,1.20
2017-11-28T00:05:43.233Z,1.20
2017-11-28T00:08:10.771Z,1.30
2017-11-28T00:10:38.306Z,1.45
2017-11-28T00:13:05.848Z,1.40
2017-11-28T00:15:34.149Z,1.20
2017-11-28T00:18:01.671Z,1.30
2017-11-28T00:20:29.973Z,1.00
2017-11-28T00:22:57.519Z,1.10
2017-11-28T00:25:25.819Z,1.30
2017-11-28T00:27:53.346Z,1.37
2017-11-28T00:30:20.879Z,1.57
2017-11-28T00:32:48.395Z,1.10
2017-11-28T00:35:16.700Z,1.23
2017-11-28T00:37:44.217Z,1.00
2017-11-28T00:40:11.756Z,1.20
2017-11-28T00:42:39.272Z,1.30
2017-11-28T00:45:06.807Z,1.60
2017-11-28T00:47:35.095Z,1.60
2017-11-28T00:50:03.482Z,1.20
2017-11-28T00:52:31.766Z,1.60
2017-11-28T00:55:00.048Z,1.43
2017-11-28T00:57:27.590Z,1.43
2017-11-28T00:59:55.112Z,1.30
2017-11-28T01:02:22.652Z,1.93
2017-11-28T01:04:50.177Z,1.40
2017-11-28T01:07:18.488Z,1.37
2017-11-28T01:09:46.021Z,1.30
2017-11-28T01:12:14.319Z,1.33
2017-11-28T01:14:41.842Z,1.40
2017-11-28T01:17:09.400Z,1.70
2017-11-28T01:19:36.912Z,1.60
2017-11-28T01:22:04.426Z,1.30
2017-11-28T01:24:31.965Z,1.27
2017-11-28T01:26:59.481Z,1.33
2017-11-28T01:29:27.784Z,1.30
2017-11-28T01:31:55.298Z,1.33
2017-11-28T01:34:22.836Z,1.30
2017-11-28T01:36:50.381Z,1.50
2017-11-28T01:39:17.931Z,1.13
2017-11-28T01:41:45.447Z,1.20
2017-11-28T01:44:12.999Z,1.40
2017-11-28T01:46:40.528Z,2.27
2017-11-28T01:49:08.085Z,1.20
2017-11-28T01:51:35.620Z,1.37
2017-11-28T01:54:03.965Z,0.90
2017-11-28T01:56:31.484Z,1.40
2017-11-28T01:58:59.015Z,1.30
2017-11-28T02:01:27.296Z,0.90
2017-11-28T02:03:55.604Z,0.87
2017-11-28T02:06:23.120Z,0.83
2017-11-28T02:08:50.664Z,1.00
2017-11-28T02:11:18.181Z,0.80
2017-11-28T02:13:45.728Z,0.97
2017-11-28T02:16:14.012Z,0.60
2017-11-28T02:18:42.310Z,0.80
2017-11-28T02:21:09.832Z,1.10
2017-11-28T02:23:37.376Z,0.93
2017-11-28T02:26:04.900Z,0.90
2017-11-28T02:28:32.418Z,1.00
2017-11-28T02:30:59.960Z,1.00
2017-11-28T02:33:27.485Z,0.80
2017-11-28T02:35:55.047Z,0.70
2017-11-28T02:38:22.574Z,0.80
2017-11-28T02:41:02.041Z,0.87
2017-11-28T02:43:29.576Z,0.60
2017-11-28T02:45:57.107Z,0.70
2017-11-28T02:48:24.629Z,0.53
2017-11-28T02:50:52.784Z,0.70
2017-11-28T02:53:21.072Z,0.90
2017-11-28T02:55:51.328Z,0.57
2017-11-28T02:58:24.313Z,0.80
2017-11-28T03:00:57.145Z,0.83
2017-11-28T03:03:24.665Z,0.60
2017-11-28T03:05:52.203Z,0.80
2017-11-28T03:08:20.491Z,0.73
2017-11-28T03:10:50.764Z,0.63
2017-11-28T03:13:34.018Z,0.73
2017-11-28T03:16:04.128Z,0.73
2017-11-28T03:18:32.542Z,0.60
2017-11-28T03:21:00.851Z,0.50
2017-11-28T03:26:21.884Z,0.60
2017-11-28T03:28:52.892Z,0.80
2017-11-28T03:31:22.023Z,1.03
2017-11-28T03:33:51.372Z,0.80
2017-11-28T03:36:18.914Z,0.60
2017-11-28T03:38:46.436Z,0.73
2017-11-28T03:41:13.968Z,0.70
2017-11-28T03:43:41.500Z,0.80
2017-11-28T03:46:23.924Z,0.90
2017-11-28T03:48:53.074Z,1.07
2017-11-28T03:51:20.616Z,0.77
2017-11-28T03:53:48.139Z,0.90
2017-11-28T03:56:15.681Z,0.67
2017-11-28T03:58:43.200Z,0.80
2017-11-28T04:01:10.741Z,0.70
2017-11-28T04:03:39.860Z,0.90
2017-11-28T04:06:07.397Z,0.60
2017-11-28T04:08:35.690Z,0.70
2017-11-28T04:11:03.240Z,0.65
2017-11-28T04:13:31.528Z,0.60
2017-11-28T04:15:59.063Z,0.50
2017-11-28T04:18:27.352Z,0.40
2017-11-28T04:20:55.652Z,0.50
2017-11-28T04:23:23.179Z,0.90
2017-11-28T04:25:50.745Z,0.60
2017-11-28T04:28:18.259Z,0.70
2017-11-28T04:30:45.802Z,0.53
2017-11-28T04:33:13.327Z,0.50
2017-11-28T04:35:41.635Z,0.40
2017-11-28T04:38:09.170Z,0.40
2017-11-28T04:40:37.492Z,0.90
2017-11-28T04:43:05.020Z,0.30
2017-11-28T04:45:33.352Z,0.30
2017-11-28T04:48:00.883Z,0.55
2017-11-28T04:50:28.407Z,0.47
2017-11-28T04:52:55.949Z,0.50
2017-11-28T04:55:23.534Z,0.60
2017-11-28T04:57:51.842Z,0.65
2017-11-28T05:00:19.377Z,0.30
2017-11-28T05:02:46.915Z,0.43
2017-11-28T05:05:14.445Z,0.40
2017-11-28T05:07:41.984Z,0.30
2017-11-28T05:10:09.510Z,0.33
2017-11-28T05:12:37.064Z,0.40
2017-11-28T05:15:04.583Z,0.30
2017-11-28T05:17:32.105Z,0.40
2017-11-28T05:20:00.416Z,0.30
2017-11-28T05:22:27.934Z,0.30
2017-11-28T05:24:55.480Z,0.45
2017-11-28T05:27:23.772Z,0.50
2017-11-28T05:29:51.316Z,0.30
2017-11-28T05:32:18.845Z,0.50
2017-11-28T05:34:46.396Z,0.20
2017-11-28T05:37:13.935Z,0.30
2017-11-28T05:39:42.230Z,0.40
2017-11-28T05:42:09.780Z,0.20
2017-11-28T05:44:38.068Z,0.45
2017-11-28T05:47:05.619Z,0.40
2017-11-28T05:49:33.171Z,0.70
2017-11-28T05:52:00.721Z,0.37
2017-11-28T05:54:28.249Z,0.40
2017-11-28T05:56:55.784Z,0.47
2017-11-28T05:59:23.315Z,0.40
2017-11-28T06:01:50.926Z,0.43
2017-11-28T06:04:18.453Z,0.50
2017-11-28T06:06:46.762Z,0.50
2017-11-28T06:09:14.290Z,0.40
2017-11-28T06:11:42.611Z,0.50
2017-11-28T06:14:10.144Z,0.40
2017-11-28T06:16:38.463Z,0.87
2017-11-28T06:19:05.991Z,0.60
2017-11-28T06:21:33.531Z,0.47
2017-11-28T06:24:01.828Z,0.40
2017-11-28T06:26:29.375Z,0.40
2017-11-28T06:28:57.668Z,3.03
2017-11-28T06:31:25.980Z,0.30
2017-11-28T06:33:53.507Z,1.60
2017-11-28T06:36:21.056Z,0.60
2017-11-28T06:38:48.579Z,0.87
2017-11-28T06:41:16.130Z,0.80
2017-11-28T06:43:43.664Z,0.65
2017-11-28T06:46:11.212Z,0.82
2017-11-28T06:48:38.739Z,0.40
2017-11-28T06:51:06.276Z,0.50
2017-11-28T06:53:34.572Z,0.40
2017-11-28T06:56:02.120Z,0.43
2017-11-28T06:58:30.417Z,0.30
2017-11-28T07:00:57.964Z,0.40
2017-11-28T07:03:26.253Z,0.50
2017-11-28T07:05:53.800Z,0.30
2017-11-28T07:08:22.101Z,0.80
2017-11-28T07:10:49.648Z,0.50
2017-11-28T07:13:17.955Z,0.40
2017-11-28T07:15:45.487Z,0.37
2017-11-28T07:18:13.795Z,0.52
2017-11-28T07:20:41.319Z,0.70
2017-11-28T07:23:09.632Z,0.37
2017-11-28T07:25:37.161Z,0.50
2017-11-28T07:28:05.469Z,0.60
2017-11-28T07:30:33.001Z,0.40
2017-11-28T07:33:01.320Z,0.20
2017-11-28T07:35:28.841Z,0.47
2017-11-28T07:37:56.392Z,0.55
2017-11-28T07:40:23.924Z,3.95
2017-11-28T07:42:51.471Z,0.50
2017-11-28T07:45:19.002Z,0.77
2017-11-28T07:47:47.322Z,0.90
2017-11-28T07:50:14.848Z,0.55
2017-11-28T07:52:43.166Z,1.02
2017-11-28T07:55:10.695Z,1.02
2017-11-28T07:57:39.010Z,0.80
2017-11-28T08:00:06.537Z,1.17
2017-11-28T08:02:34.848Z,0.50
2017-11-28T08:05:02.369Z,0.40
2017-11-28T08:07:30.711Z,0.30
2017-11-28T08:09:58.236Z,0.70
2017-11-28T08:12:25.780Z,0.68
2017-11-28T08:14:53.319Z,0.43
2017-11-28T08:17:20.863Z,0.50
2017-11-28T08:19:48.387Z,0.50
2017-11-28T08:22:15.937Z,0.50
2017-11-28T08:24:44.227Z,0.80
2017-11-28T08:27:11.781Z,0.68
2017-11-28T08:29:40.075Z,1.10
2017-11-28T08:32:07.632Z,0.70
2017-11-28T08:34:35.171Z,0.70
2017-11-28T08:37:03.481Z,0.40
2017-11-28T08:39:31.010Z,0.50
2017-11-28T08:41:59.328Z,0.60
2017-11-28T08:44:26.854Z,0.47
2017-11-28T08:46:54.400Z,0.40
2017-11-28T08:49:21.920Z,0.70
2017-11-28T08:51:49.461Z,0.90
2017-11-28T08:54:17.751Z,0.50
2017-11-28T08:56:45.267Z,0.83
2017-11-28T08:59:12.804Z,0.70
2017-11-28T09:01:40.329Z,0.70
2017-11-28T09:04:07.879Z,0.80
2017-11-28T09:06:36.168Z,0.47
2017-11-28T09:09:04.477Z,0.50
2017-11-28T09:11:31.997Z,0.40
2017-11-28T09:14:00.311Z,0.60
2017-11-28T09:16:27.832Z,3.03
2017-11-28T09:18:55.370Z,0.80
2017-11-28T09:21:22.888Z,0.70
2017-11-28T09:23:50.433Z,0.70
2017-11-28T09:26:17.968Z,0.53
2017-11-28T09:28:46.296Z,1.33
2017-11-28T09:31:13.836Z,0.80
2017-11-28T09:33:41.356Z,0.60
2017-11-28T09:36:08.901Z,0.90
2017-11-28T09:38:36.425Z,0.70
2017-11-28T09:41:04.731Z,0.60
2017-11-28T09:43:32.256Z,0.47
2017-11-28T09:45:59.796Z,0.70
2017-11-28T09:48:27.316Z,1.70
2017-11-28T09:50:54.835Z,1.47
2017-11-28T09:53:22.376Z,0.70
2017-11-28T09:55:49.899Z,0.80
2017-11-28T09:58:17.440Z,1.77
2017-11-28T10:00:45.731Z,0.67
2017-11-28T10:03:14.044Z,0.80
2017-11-28T10:05:41.559Z,0.70
2017-11-28T10:08:09.097Z,0.90
2017-11-28T10:10:36.629Z,0.80
2017-11-28T10:13:04.168Z,0.63
2017-11-28T10:15:31.686Z,1.40
2017-11-28T10:17:59.232Z,0.70
2017-11-28T10:20:26.779Z,0.67
2017-11-28T10:22:54.321Z,1.43
2017-11-28T10:25:21.836Z,1.47
2017-11-28T10:27:49.369Z,0.70
2017-11-28T10:30:16.888Z,1.80
2017-11-28T10:32:45.192Z,1.20
2017-11-28T10:35:12.720Z,1.03
2017-11-28T10:37:40.260Z,0.67
2017-11-28T10:40:07.781Z,1.20
2017-11-28T10:42:35.323Z,1.00
2017-11-28T10:45:03.613Z,0.70
2017-11-28T10:47:31.896Z,1.47
2017-11-28T10:50:00.203Z,5.97
2017-11-28T10:52:27.723Z,2.00
2017-11-28T10:54:55.262Z,1.20
2017-11-28T10:57:22.789Z,1.10
2017-11-28T10:59:50.335Z,1.73
2017-11-28T11:02:18.613Z,1.70
2017-11-28T11:04:46.175Z,1.60
2017-11-28T11:07:13.697Z,1.10
2017-11-28T11:09:41.259Z,0.63
2017-11-28T11:12:08.787Z,0.73
2017-11-28T11:14:36.308Z,0.80
2017-11-28T11:17:04.613Z,0.60
2017-11-28T11:19:32.144Z,0.60
2017-11-28T11:22:00.448Z,0.60
2017-11-28T11:24:27.977Z,1.57
2017-11-28T11:26:55.524Z,1.60
2017-11-28T11:29:23.058Z,0.80
2017-11-28T11:31:50.601Z,0.87
2017-11-28T11:34:18.123Z,0.90
2017-11-28T11:36:45.661Z,0.50
2017-11-28T11:39:13.181Z,0.83
2017-11-28T11:41:41.481Z,0.87
2017-11-28T11:44:09.000Z,0.70
2017-11-28T11:46:36.524Z,0.60
2017-11-28T11:49:04.068Z,0.73
2017-11-28T11:51:31.593Z,0.80
2017-11-28T11:53:59.906Z,0.80
2017-11-28T11:56:27.423Z,0.73
2017-11-28T11:58:54.955Z,0.50
2017-11-28T12:01:22.472Z,0.63
2017-11-28T12:03:50.772Z,1.00
2017-11-28T12:06:18.300Z,1.03
2017-11-28T12:08:46.617Z,0.87
2017-11-28T12:11:14.135Z,1.00
2017-11-28T12:13:41.683Z,0.87
2017-11-28T12:16:09.197Z,0.97
2017-11-28T12:18:36.736Z,1.00
2017-11-28T12:21:05.022Z,1.40
2017-11-28T12:23:33.328Z,1.23
2017-11-28T12:26:00.857Z,1.20
2017-11-28T12:28:29.165Z,1.67
2017-11-28T12:30:56.692Z,1.27
2017-11-28T12:33:25.003Z,1.73
2017-11-28T12:35:52.517Z,2.83
2017-11-28T12:38:20.071Z,7.40
2017-11-28T12:40:47.594Z,5.10
2017-11-28T12:43:15.127Z,3.60
2017-11-28T12:45:43.422Z,1.97
2017-11-28T12:48:11.725Z,1.80
2017-11-28T12:50:39.278Z,1.90
2017-11-28T12:53:06.800Z,1.70
2017-11-28T12:55:34.360Z,2.63
2017-11-28T12:58:01.883Z,1.70
2017-11-28T13:00:29.428Z,2.87
2017-11-28T13:02:56.948Z,2.27
2017-11-28T13:05:24.495Z,6.43
2017-11-28T13:07:52.015Z,6.40
2017-11-28T13:10:19.553Z,4.13
2017-11-28T13:12:47.839Z,6.60
2017-11-28T13:15:16.144Z,6.27
2017-11-28T13:17:43.663Z,6.90
2017-11-28T13:20:11.196Z,3.30
2017-11-28T13:22:38.708Z,2.80
2017-11-28T13:25:07.016Z,2.80
2017-11-28T13:27:34.539Z,4.07
2017-11-28T13:30:02.852Z,3.20
2017-11-28T13:32:30.376Z,3.03
2017-11-28T13:34:57.915Z,3.40
2017-11-28T13:37:25.438Z,2.10
2017-11-28T13:39:52.976Z,1.93
2017-11-28T13:42:21.260Z,2.30
2017-11-28T13:44:49.567Z,2.23
2017-11-28T13:47:17.092Z,2.30
2017-11-28T13:49:45.402Z,3.30
2017-11-28T13:52:12.925Z,2.77
2017-11-28T13:54:40.470Z,3.33
2017-11-28T13:57:07.997Z,3.07
2017-11-28T13:59:35.515Z,2.00
2017-11-28T14:02:03.052Z,1.50
2017-11-28T14:04:30.577Z,1.80
2017-11-28T14:06:58.127Z,1.83
2017-11-28T14:09:25.648Z,1.60
2017-11-28T14:11:53.193Z,1.83
2017-11-28T14:14:20.724Z,6.67
2017-11-28T14:16:48.288Z,13.83
2017-11-28T14:19:15.812Z,6.10
2017-11-28T14:22:01.705Z,3.10
2017-11-28T14:24:45.664Z,2.50
2017-11-28T14:27:28.847Z,2.40
2017-11-28T14:30:00.616Z,1.60
2017-11-28T14:32:33.855Z,2.40
2017-11-28T14:38:07.917Z,1.63
2017-11-28T14:40:37.258Z,2.13
2017-11-28T14:43:08.442Z,2.23
2017-11-28T14:45:45.871Z,2.63
2017-11-28T14:48:13.416Z,2.17
2017-11-28T14:50:46.582Z,2.80
2017-11-28T14:53:14.124Z,2.53
2017-11-28T14:58:44.068Z,2.40
2017-11-28T15:01:22.276Z,2.33
2017-11-28T15:06:59.343Z,2.30
2017-11-28T15:09:30.536Z,2.03
2017-11-28T15:12:17.905Z,1.23
2017-11-28T15:18:00.004Z,1.83
2017-11-28T15:20:33.879Z,1.80
2017-11-28T15:23:15.320Z,1.73
2017-11-28T15:25:44.751Z,1.70
2017-11-28T15:28:12.732Z,1.30
2017-11-28T15:30:40.276Z,2.40
2017-11-28T15:33:07.800Z,1.70
2017-11-28T15:35:36.103Z,1.80
2017-11-28T15:38:03.616Z,5.90
2017-11-28T15:40:31.155Z,16.17
2017-11-28T15:42:58.679Z,6.93
2017-11-28T15:45:26.227Z,3.25
2017-11-28T15:47:54.519Z,3.50
2017-11-28T15:50:22.824Z,2.93
2017-11-28T15:52:50.340Z,1.90
2017-11-28T15:55:17.869Z,1.90
2017-11-28T15:57:45.408Z,3.20
2017-11-28T16:00:12.960Z,3.20
2017-11-28T16:02:40.477Z,2.50
2017-11-28T16:05:08.017Z,2.47
2017-11-28T16:07:35.546Z,2.83
2017-11-28T16:10:03.117Z,3.50
2017-11-28T16:12:30.646Z,3.50
2017-11-28T16:14:58.949Z,3.35
2017-11-28T16:17:27.256Z,3.67
2017-11-28T16:19:54.775Z,2.63
2017-11-28T16:22:23.083Z,3.45
2017-11-28T16:24:50.612Z,2.78
2017-11-28T16:27:18.155Z,2.50
2017-11-28T16:29:45.681Z,2.05
2017-11-28T16:32:13.227Z,1.90
2017-11-28T16:34:40.755Z,1.73
2017-11-28T16:37:08.298Z,1.85
2017-11-28T16:39:35.819Z,2.00
2017-11-28T16:42:03.365Z,1.55
2017-11-28T16:44:31.662Z,3.10
2017-11-28T16:46:59.204Z,3.05
2017-11-28T16:49:27.493Z,3.45
2017-11-28T16:51:55.035Z,3.00
2017-11-28T16:54:22.556Z,2.40
2017-11-28T16:56:50.100Z,2.80
2017-11-28T16:59:17.619Z,2.10
2017-11-28T17:01:45.159Z,3.70
2017-11-28T17:04:12.684Z,10.35
2017-11-28T17:06:40.247Z,10.50
2017-11-28T17:09:07.772Z,7.20
2017-11-28T17:11:35.321Z,6.05
2017-11-28T17:14:02.857Z,6.37
2017-11-28T17:16:30.409Z,4.55
2017-11-28T17:18:57.932Z,4.35
2017-11-28T17:21:26.253Z,3.75
2017-11-28T17:23:53.785Z,3.08
2017-11-28T17:26:22.097Z,4.93
2017-11-28T17:28:49.616Z,5.20
2017-11-28T17:31:17.786Z,6.45
2017-11-28T17:33:45.397Z,6.18
2017-11-28T17:36:12.935Z,4.37
2017-11-28T17:38:40.460Z,3.80
2017-11-28T17:41:07.985Z,3.62
2017-11-28T17:43:35.529Z,3.45
2017-11-28T17:46:03.056Z,4.28
2017-11-28T17:48:31.365Z,3.65
2017-11-28T17:50:58.892Z,4.20
2017-11-28T17:53:26.440Z,6.15
2017-11-28T17:55:53.969Z,4.90
2017-11-28T17:58:21.520Z,3.97
2017-11-28T18:00:49.045Z,5.50
2017-11-28T18:03:17.368Z,4.93
2017-11-28T18:05:44.907Z,3.50
2017-11-28T18:08:12.477Z,4.15
2017-11-28T18:10:39.996Z,4.10
2017-11-28T18:13:08.301Z,4.20
2017-11-28T18:15:35.823Z,2.78
2017-11-28T18:18:03.366Z,3.35
2017-11-28T18:20:30.894Z,4.32
2017-11-28T18:22:58.439Z,7.90
2017-11-28T18:25:25.985Z,7.60
2017-11-28T18:27:54.308Z,7.90
2017-11-28T18:30:21.842Z,6.50
2017-11-28T18:32:49.390Z,8.82
2017-11-28T18:35:17.684Z,10.95
2017-11-28T18:37:45.246Z,12.05
2017-11-28T18:40:12.779Z,7.87
2017-11-28T18:42:41.099Z,8.13
2017-11-28T18:45:08.675Z,10.30
2017-11-28T18:47:36.238Z,9.50
2017-11-28T18:50:03.764Z,7.00
2017-11-28T18:52:31.292Z,5.50
2017-11-28T18:54:58.832Z,4.97
2017-11-28T18:57:26.353Z,4.28
2017-11-28T18:59:53.901Z,4.87
2017-11-28T19:02:21.420Z,4.25
2017-11-28T19:04:48.961Z,3.62
2017-11-28T19:07:16.480Z,3.90
2017-11-28T19:09:44.030Z,4.20
2017-11-28T19:12:12.319Z,6.35
2017-11-28T19:14:39.859Z,6.03
2017-11-28T19:17:08.152Z,5.80
2017-11-28T19:19:35.708Z,5.50
2017-11-28T19:22:03.987Z,5.15
2017-11-28T19:24:32.297Z,6.10
2017-11-28T19:26:59.821Z,5.22
2017-11-28T19:29:28.123Z,6.50
2017-11-28T19:31:55.646Z,4.72
2017-11-28T19:34:23.956Z,4.37
2017-11-28T19:36:51.480Z,4.70
2017-11-28T19:39:19.784Z,5.18
2017-11-28T19:41:47.307Z,7.22
2017-11-28T19:44:14.857Z,12.95
2017-11-28T19:46:42.383Z,17.30
2017-11-28T19:49:09.938Z,17.35
2017-11-28T19:51:37.467Z,13.65
2017-11-28T19:54:05.782Z,10.68
2017-11-28T19:56:33.326Z,6.87
2017-11-28T19:59:00.860Z,7.05
2017-11-28T20:01:29.169Z,5.18
2017-11-28T20:03:56.703Z,6.72
2017-11-28T20:06:24.989Z,6.25
2017-11-28T20:08:53.292Z,5.55
2017-11-28T20:11:20.820Z,7.40
2017-11-28T20:13:49.184Z,5.80
2017-11-28T20:16:16.714Z,5.90
2017-11-28T20:18:44.261Z,5.25
2017-11-28T20:21:11.793Z,6.35
2017-11-28T20:23:39.317Z,5.70
2017-11-28T20:26:06.855Z,5.93
2017-11-28T20:28:34.384Z,6.05
2017-11-28T20:31:01.934Z,5.30
2017-11-28T20:33:29.468Z,8.77
2017-11-28T20:35:57.008Z,6.35
2017-11-28T20:38:24.531Z,5.15
2017-11-28T20:40:52.075Z,7.15
2017-11-28T20:43:19.595Z,5.45
2017-11-28T20:45:47.136Z,6.45
2017-11-28T20:48:14.664Z,5.32
2017-11-28T20:50:42.220Z,6.18
2017-11-28T20:53:09.756Z,6.05
2017-11-28T20:55:37.296Z,5.45
2017-11-28T20:58:04.815Z,4.82
2017-11-28T21:00:32.363Z,8.90
2017-11-28T21:03:00.660Z,15.90
2017-11-28T21:05:28.208Z,14.05
2017-11-28T21:07:56.504Z,8.43
2017-11-28T21:10:24.051Z,7.47
2017-11-28T21:12:52.335Z,6.32
2017-11-28T21:15:20.640Z,6.40
2017-11-28T21:17:48.164Z,7.15
2017-11-28T21:20:17.217Z,6.70
2017-11-28T21:22:44.736Z,6.00
2017-11-28T21:25:13.044Z,6.30
2017-11-28T21:27:40.565Z,6.32
2017-11-28T21:30:08.905Z,6.45
2017-11-28T21:32:36.424Z,9.70
2017-11-28T21:35:04.761Z,7.95
2017-11-28T21:37:32.302Z,9.93
2017-11-28T21:39:59.836Z,13.02
2017-11-28T21:42:27.378Z,14.52
2017-11-28T21:44:55.680Z,11.57
2017-11-28T21:47:23.224Z,10.10
2017-11-28T21:49:51.512Z,8.55
2017-11-28T21:52:19.063Z,7.05
2017-11-28T21:54:47.357Z,6.80
2017-11-28T21:57:14.905Z,6.53
2017-11-28T21:59:43.207Z,5.82
2017-11-28T22:02:10.761Z,7.00
2017-11-28T22:04:38.293Z,9.98
2017-11-28T22:07:05.821Z,9.90
2017-11-28T22:09:33.372Z,11.10
2017-11-28T22:12:00.901Z,11.18
2017-11-28T22:14:28.444Z,7.85
2017-11-28T22:16:56.748Z,13.85
2017-11-28T22:19:24.317Z,10.55
2017-11-28T22:21:51.851Z,18.55
2017-11-28T22:24:20.172Z,16.55
2017-11-28T22:26:47.701Z,16.30
2017-11-28T22:29:16.015Z,11.55
2017-11-28T22:31:43.534Z,18.25
2017-11-28T22:34:11.875Z,16.60
2017-11-28T22:36:39.404Z,16.83
2017-11-28T22:39:06.936Z,14.73
2017-11-28T22:41:35.259Z,17.98
2017-11-28T22:44:02.792Z,15.50
2017-11-28T22:46:30.338Z,14.32
2017-11-28T22:48:58.631Z,16.80
2017-11-28T22:51:26.192Z,17.37
2017-11-28T22:53:53.725Z,18.02
2017-11-28T22:56:22.057Z,17.55
2017-11-28T22:58:49.587Z,12.90
2017-11-28T23:01:17.900Z,12.90
2017-11-28T23:03:45.430Z,13.18
2017-11-28T23:06:12.976Z,11.38
2017-11-28T23:08:41.272Z,18.62
2017-11-28T23:11:08.832Z,12.07
2017-11-28T23:13:48.239Z,13.20
2017-11-28T23:16:15.783Z,12.63
2017-11-28T23:18:43.312Z,13.27
2017-11-28T23:21:10.864Z,10.95
2017-11-28T23:23:38.404Z,17.85
2017-11-28T23:26:06.726Z,11.88
2017-11-28T23:28:34.256Z,16.65
2017-11-28T23:31:01.807Z,17.35
2017-11-28T23:33:30.105Z,15.55
2017-11-28T23:35:57.663Z,13.98
2017-11-28T23:38:25.200Z,13.40
2017-11-28T23:40:53.524Z,15.75
2017-11-28T23:43:21.057Z,17.67
2017-11-28T23:45:48.611Z,14.57
2017-11-28T23:48:16.908Z,16.35
2017-11-28T23:50:44.456Z,14.05
2017-11-28T23:53:12.756Z,14.07
2017-11-28T23:55:40.310Z,14.73
2017-11-28T23:58:07.839Z,14.32
